createdAt,value
2023-05-14T00:02:50.473Z,10.90
2023-05-14T00:05:56.633Z,13.00
2023-05-14T00:09:02.752Z,11.90
2023-05-14T00:12:09.603Z,13.20
2023-05-14T00:15:15.840Z,12.20
2023-05-14T00:18:21.900Z,12.10
2023-05-14T00:21:28.177Z,11.30
2023-05-14T00:24:34.739Z,11.70
2023-05-14T00:27:43.366Z,13.20
2023-05-14T00:30:49.554Z,12.00
2023-05-14T00:33:56.015Z,10.90
2023-05-14T00:37:02.415Z,14.10
2023-05-14T00:40:12.970Z,11.70
2023-05-14T00:43:19.068Z,12.00
2023-05-14T00:46:25.346Z,12.40
2023-05-14T00:49:31.981Z,12.50
2023-05-14T00:52:38.782Z,12.00
2023-05-14T00:55:45.266Z,11.40
2023-05-14T00:58:51.413Z,11.70
2023-05-14T01:01:58.205Z,13.10
2023-05-14T01:05:05.044Z,12.80
2023-05-14T01:08:24.029Z,12.70
2023-05-14T01:11:33.909Z,12.80
2023-05-14T01:17:50.282Z,10.60
2023-05-14T01:20:56.917Z,11.20
2023-05-14T01:24:03.084Z,11.10
2023-05-14T01:27:15.312Z,13.50
2023-05-14T01:30:25.008Z,11.40
2023-05-14T01:33:32.137Z,11.70
2023-05-14T01:36:38.707Z,12.00
2023-05-14T01:39:44.969Z,9.30
2023-05-14T01:42:52.344Z,10.80
2023-05-14T01:45:58.885Z,10.10
2023-05-14T01:49:05.385Z,10.70
2023-05-14T01:52:12.207Z,11.30
2023-05-14T01:55:18.455Z,10.20
2023-05-14T01:58:24.856Z,8.90
2023-05-14T02:01:31.850Z,10.20
2023-05-14T02:04:37.940Z,12.00
2023-05-14T02:07:44.018Z,10.80
2023-05-14T02:10:50.054Z,12.50
2023-05-14T02:13:56.137Z,10.30
2023-05-14T02:17:03.600Z,11.90
2023-05-14T02:20:11.861Z,10.60
2023-05-14T02:23:18.102Z,10.00
2023-05-14T02:26:24.462Z,10.70
2023-05-14T02:29:30.617Z,11.00
2023-05-14T02:32:36.690Z,11.00
2023-05-14T02:35:43.377Z,11.20
2023-05-14T02:38:49.531Z,9.00
2023-05-14T02:41:55.892Z,11.10
2023-05-14T02:45:02.784Z,14.50
2023-05-14T02:48:09.385Z,9.90
2023-05-14T02:51:16.247Z,12.10
2023-05-14T02:54:22.441Z,9.70
2023-05-14T02:57:28.565Z,9.30
2023-05-14T03:00:34.576Z,9.10
2023-05-14T03:03:41.066Z,8.40
2023-05-14T03:06:47.387Z,13.30
2023-05-14T03:09:53.570Z,10.40
2023-05-14T03:12:59.718Z,10.60
2023-05-14T03:16:06.346Z,9.90
2023-05-14T03:19:12.418Z,8.20
2023-05-14T03:22:18.687Z,8.30
2023-05-14T03:25:24.906Z,10.40
2023-05-14T03:28:31.165Z,10.30
2023-05-14T03:31:37.481Z,10.10
2023-05-14T03:34:44.768Z,10.10
2023-05-14T03:37:52.818Z,9.70
2023-05-14T03:41:00.130Z,10.20
2023-05-14T03:44:06.436Z,10.10
2023-05-14T03:47:12.845Z,9.60
2023-05-14T03:50:19.100Z,8.80
2023-05-14T03:53:25.281Z,8.40
2023-05-14T03:56:31.180Z,13.00
2023-05-14T03:59:37.361Z,11.00
2023-05-14T04:02:43.919Z,8.60
2023-05-14T04:05:50.194Z,8.80
2023-05-14T04:08:56.138Z,9.00
2023-05-14T04:12:02.549Z,9.10
2023-05-14T04:15:10.437Z,10.60
2023-05-14T04:18:17.355Z,10.80
2023-05-14T04:21:23.689Z,10.20
2023-05-14T04:24:29.946Z,9.90
2023-05-14T04:27:36.144Z,9.40
2023-05-14T04:30:42.480Z,9.40
2023-05-14T04:33:48.479Z,9.10
2023-05-14T04:36:54.637Z,9.30
2023-05-14T04:40:01.099Z,10.30
2023-05-14T04:43:07.976Z,10.40
2023-05-14T04:46:14.986Z,11.10
2023-05-14T04:49:21.689Z,9.40
2023-05-14T04:52:28.890Z,8.90
2023-05-14T04:55:35.027Z,10.30
2023-05-14T04:58:41.749Z,10.20
2023-05-14T05:01:47.896Z,8.70
2023-05-14T05:04:54.046Z,8.90
2023-05-14T05:08:00.524Z,9.00
2023-05-14T05:11:06.900Z,10.30
2023-05-14T05:14:13.593Z,8.90
2023-05-14T05:17:19.857Z,7.50
2023-05-14T05:20:28.313Z,16.00
2023-05-14T05:23:34.506Z,9.00
2023-05-14T05:26:41.054Z,9.10
2023-05-14T05:29:47.539Z,8.90
2023-05-14T05:32:54.342Z,8.40
2023-05-14T05:36:01.030Z,9.80
2023-05-14T05:39:07.207Z,8.80
2023-05-14T05:42:13.175Z,9.10
2023-05-14T05:45:19.887Z,10.20
2023-05-14T05:48:26.745Z,8.40
2023-05-14T05:51:33.663Z,9.40
2023-05-14T05:54:40.291Z,9.20
2023-05-14T05:57:47.494Z,9.30
2023-05-14T06:00:54.026Z,12.60
2023-05-14T06:04:00.721Z,11.10
2023-05-14T06:07:06.948Z,9.90
2023-05-14T06:10:13.753Z,8.70
2023-05-14T06:13:19.768Z,8.10
2023-05-14T06:16:26.555Z,9.10
2023-05-14T06:19:32.689Z,9.80
2023-05-14T06:22:41.016Z,9.70
2023-05-14T06:25:48.423Z,9.80
2023-05-14T06:28:56.225Z,11.70
2023-05-14T06:32:05.613Z,8.10
2023-05-14T06:35:12.586Z,9.30
2023-05-14T06:38:18.558Z,11.00
2023-05-14T06:41:24.854Z,10.40
2023-05-14T06:44:31.348Z,9.70
2023-05-14T06:47:37.758Z,10.60
2023-05-14T06:50:43.803Z,10.20
2023-05-14T06:53:50.140Z,8.10
2023-05-14T06:56:56.298Z,10.40
2023-05-14T07:00:03.660Z,9.50
2023-05-14T07:03:10.197Z,10.00
2023-05-14T07:06:16.622Z,10.20
2023-05-14T07:09:23.327Z,10.00
2023-05-14T07:12:29.606Z,9.10
2023-05-14T07:15:35.816Z,10.60
2023-05-14T07:18:42.705Z,9.60
2023-05-14T07:21:49.135Z,11.60
2023-05-14T07:24:55.488Z,9.90
2023-05-14T07:28:01.972Z,11.90
2023-05-14T07:31:09.294Z,11.10
2023-05-14T07:34:16.069Z,10.10
2023-05-14T07:37:24.199Z,11.50
2023-05-14T07:40:30.298Z,10.20
2023-05-14T07:43:38.523Z,11.70
2023-05-14T07:46:44.729Z,10.00
2023-05-14T07:49:50.911Z,11.60
2023-05-14T07:52:57.117Z,10.20
2023-05-14T07:56:04.202Z,11.20
2023-05-14T07:59:10.143Z,9.50
2023-05-14T08:02:17.173Z,10.40
2023-05-14T08:05:23.904Z,11.80
2023-05-14T08:08:30.361Z,12.80
2023-05-14T08:11:36.437Z,11.50
2023-05-14T08:14:42.749Z,11.60
2023-05-14T08:17:49.388Z,9.40
2023-05-14T08:20:56.168Z,9.90
2023-05-14T08:24:02.668Z,11.00
2023-05-14T08:27:09.963Z,10.00
2023-05-14T08:30:18.137Z,10.30
2023-05-14T08:33:24.299Z,9.80
2023-05-14T08:36:30.402Z,10.90
2023-05-14T08:39:36.996Z,10.10
2023-05-14T08:42:45.046Z,10.30
2023-05-14T08:45:52.327Z,10.80
2023-05-14T08:49:03.988Z,11.50
2023-05-14T08:52:10.756Z,9.60
2023-05-14T08:55:16.871Z,10.70
2023-05-14T08:58:22.949Z,10.70
2023-05-14T09:01:29.864Z,10.80
2023-05-14T09:04:37.076Z,10.90
2023-05-14T09:07:43.728Z,10.80
2023-05-14T09:10:50.068Z,12.30
2023-05-14T09:13:56.114Z,10.50
2023-05-14T09:17:02.451Z,10.70
2023-05-14T09:20:10.491Z,11.20
2023-05-14T09:23:16.553Z,12.10
2023-05-14T09:26:27.216Z,13.00
2023-05-14T09:29:33.935Z,10.70
2023-05-14T09:32:42.573Z,10.80
2023-05-14T09:35:49.941Z,10.10
2023-05-14T09:38:56.126Z,10.30
2023-05-14T09:42:02.758Z,9.90
2023-05-14T09:45:10.901Z,11.70
2023-05-14T09:48:17.411Z,11.20
2023-05-14T09:51:24.126Z,11.30
2023-05-14T09:54:31.309Z,10.60
2023-05-14T09:57:37.975Z,10.90
2023-05-14T10:00:47.869Z,11.60
2023-05-14T10:06:59.553Z,10.70
2023-05-14T10:10:08.584Z,11.10
2023-05-14T10:13:17.150Z,10.70
2023-05-14T10:16:30.184Z,12.50
2023-05-14T10:19:36.902Z,11.40
2023-05-14T10:22:43.013Z,10.60
2023-05-14T10:25:49.417Z,13.30
2023-05-14T10:28:56.250Z,11.20
2023-05-14T10:32:07.305Z,12.00
2023-05-14T10:35:20.757Z,13.10
2023-05-14T10:38:29.353Z,12.40
2023-05-14T10:41:36.846Z,11.20
2023-05-14T10:44:47.430Z,12.60
2023-05-14T10:47:53.557Z,13.80
2023-05-14T10:51:00.769Z,13.30
2023-05-14T10:54:06.901Z,11.00
2023-05-14T10:57:16.899Z,13.40
2023-05-14T11:00:23.095Z,11.10
2023-05-14T11:03:32.750Z,12.50
2023-05-14T11:06:43.336Z,12.80
2023-05-14T11:09:49.849Z,12.00
2023-05-14T11:12:56.130Z,13.10
2023-05-14T11:16:15.140Z,12.80
2023-05-14T11:19:27.876Z,12.50
2023-05-14T11:22:34.073Z,11.00
2023-05-14T11:25:40.658Z,12.00
2023-05-14T11:28:47.177Z,15.80
2023-05-14T11:31:53.503Z,11.90
2023-05-14T11:35:00.430Z,11.50
2023-05-14T11:38:08.625Z,14.00
2023-05-14T11:41:17.106Z,11.80
2023-05-14T11:44:23.182Z,11.10
2023-05-14T11:47:30.837Z,12.70
2023-05-14T11:50:38.635Z,14.00
2023-05-14T11:53:46.257Z,12.50
2023-05-14T11:56:54.121Z,12.90
2023-05-14T12:00:00.554Z,12.50
2023-05-14T12:03:06.961Z,12.50
2023-05-14T12:06:13.114Z,13.90
2023-05-14T12:09:20.661Z,13.60
2023-05-14T12:12:26.935Z,12.90
2023-05-14T12:15:34.050Z,12.80
2023-05-14T12:18:40.308Z,12.10
2023-05-14T12:21:48.081Z,13.60
2023-05-14T12:24:59.333Z,12.00
2023-05-14T12:28:05.745Z,12.80
2023-05-14T12:31:12.386Z,11.40
2023-05-14T12:34:18.992Z,11.80
2023-05-14T12:37:25.524Z,12.60
2023-05-14T12:40:31.708Z,11.40
2023-05-14T12:43:38.012Z,13.00
2023-05-14T12:46:44.308Z,12.90
2023-05-14T12:49:51.197Z,11.60
2023-05-14T12:52:58.082Z,11.40
2023-05-14T12:56:04.525Z,10.30
2023-05-14T12:59:10.778Z,10.00
2023-05-14T13:02:17.911Z,11.10
2023-05-14T13:05:24.377Z,13.80
2023-05-14T13:08:31.056Z,12.50
2023-05-14T13:11:37.268Z,12.60
2023-05-14T13:14:43.666Z,10.20
2023-05-14T13:17:50.063Z,10.20
2023-05-14T13:20:56.985Z,12.00
2023-05-14T13:24:04.318Z,9.60
2023-05-14T13:27:10.689Z,9.40
2023-05-14T13:30:17.504Z,9.60
2023-05-14T13:33:24.127Z,12.60
2023-05-14T13:36:31.063Z,9.90
2023-05-14T13:39:37.361Z,11.10
2023-05-14T13:42:43.469Z,11.30
2023-05-14T13:45:49.615Z,12.60
2023-05-14T13:48:55.609Z,12.80
2023-05-14T13:52:03.214Z,10.60
2023-05-14T13:55:10.842Z,12.60
2023-05-14T13:58:17.610Z,12.10
2023-05-14T14:01:23.881Z,11.70
2023-05-14T14:04:30.376Z,13.00
2023-05-14T14:07:36.431Z,10.90
2023-05-14T14:10:43.050Z,10.20
2023-05-14T14:13:48.979Z,10.60
2023-05-14T14:16:55.364Z,11.50
2023-05-14T14:20:01.440Z,12.30
2023-05-14T14:23:07.900Z,13.80
2023-05-14T14:26:14.251Z,11.50
2023-05-14T14:29:21.094Z,11.80
2023-05-14T14:32:27.102Z,14.80
2023-05-14T14:35:35.632Z,16.70
2023-05-14T14:38:41.695Z,10.30
2023-05-14T14:41:48.446Z,12.90
2023-05-14T14:44:54.718Z,13.10
2023-05-14T14:48:27.000Z,10.70
2023-05-14T14:51:33.179Z,12.10
2023-05-14T14:54:39.528Z,11.40
2023-05-14T14:57:45.531Z,13.40
2023-05-14T15:00:53.332Z,8.70
2023-05-14T15:03:59.385Z,12.50
2023-05-14T15:07:06.095Z,10.80
2023-05-14T15:10:12.953Z,8.40
2023-05-14T15:13:19.037Z,12.40
2023-05-14T15:16:25.074Z,9.60
2023-05-14T15:19:32.413Z,7.50
2023-05-14T15:22:38.650Z,8.90
2023-05-14T15:25:44.914Z,8.60
2023-05-14T15:28:51.263Z,7.40
2023-05-14T15:31:57.983Z,6.90
2023-05-14T15:35:04.085Z,11.00
2023-05-14T15:38:10.136Z,6.30
2023-05-14T15:41:16.212Z,7.20
2023-05-14T15:44:22.382Z,6.40
2023-05-14T15:47:28.801Z,6.50
2023-05-14T15:50:35.372Z,6.30
2023-05-14T15:53:41.528Z,7.70
2023-05-14T15:56:48.006Z,7.30
2023-05-14T15:59:54.032Z,7.20
2023-05-14T16:03:00.620Z,7.50
2023-05-14T16:06:07.270Z,7.60
2023-05-14T16:09:13.811Z,6.60
2023-05-14T16:12:19.944Z,7.70
2023-05-14T16:15:27.417Z,7.60
2023-05-14T16:18:33.860Z,6.50
2023-05-14T16:21:40.088Z,5.90
2023-05-14T16:24:46.190Z,8.20
2023-05-14T16:27:52.319Z,9.90
2023-05-14T16:31:00.847Z,6.90
2023-05-14T16:37:13.254Z,7.70
2023-05-14T16:40:20.101Z,7.50
2023-05-14T16:43:26.761Z,8.40
2023-05-14T16:46:33.471Z,6.60
2023-05-14T16:49:39.842Z,7.80
2023-05-14T16:52:46.187Z,8.00
2023-05-14T16:55:52.440Z,7.90
2023-05-14T16:59:00.083Z,7.80
2023-05-14T17:02:07.150Z,6.50
2023-05-14T17:05:13.559Z,6.90
2023-05-14T17:08:19.593Z,7.10
2023-05-14T17:11:25.989Z,7.00
2023-05-14T17:14:32.064Z,7.10
2023-05-14T17:17:38.302Z,6.30
2023-05-14T17:20:44.785Z,6.00
2023-05-14T17:23:51.083Z,6.30
2023-05-14T17:26:57.429Z,6.80
2023-05-14T17:30:04.579Z,6.60
2023-05-14T17:33:11.540Z,5.90
2023-05-14T17:36:17.998Z,5.50
2023-05-14T17:39:24.275Z,6.40
2023-05-14T17:42:30.435Z,6.40
2023-05-14T17:45:52.518Z,6.60
2023-05-14T17:48:59.978Z,6.20
2023-05-14T17:52:07.301Z,5.10
2023-05-14T17:55:13.804Z,6.20
2023-05-14T17:58:19.903Z,6.50
2023-05-14T18:01:26.620Z,6.60
2023-05-14T18:04:32.841Z,6.40
2023-05-14T18:07:39.419Z,6.00
2023-05-14T18:10:45.657Z,6.80
2023-05-14T18:13:52.083Z,6.20
2023-05-14T18:16:58.434Z,8.00
2023-05-14T18:20:05.020Z,7.90
2023-05-14T18:23:11.142Z,7.00
2023-05-14T18:26:17.315Z,8.00
2023-05-14T18:29:23.387Z,7.50
2023-05-14T18:32:29.698Z,7.50
2023-05-14T18:35:36.044Z,7.70
2023-05-14T18:38:42.293Z,7.20
2023-05-14T18:41:48.715Z,7.80
2023-05-14T18:44:54.949Z,8.40
2023-05-14T18:48:01.257Z,8.70
2023-05-14T18:51:07.824Z,9.40
2023-05-14T18:54:13.875Z,9.90
2023-05-14T18:57:20.230Z,9.30
2023-05-14T19:00:28.421Z,7.60
2023-05-14T19:03:35.535Z,7.90
2023-05-14T19:06:42.514Z,10.40
2023-05-14T19:09:48.841Z,10.80
2023-05-14T19:12:55.050Z,7.10
2023-05-14T19:16:03.111Z,10.70
2023-05-14T19:19:09.979Z,9.20
2023-05-14T19:22:16.536Z,10.00
2023-05-14T19:25:22.564Z,8.10
2023-05-14T19:28:28.748Z,10.50
2023-05-14T19:31:34.931Z,8.90
2023-05-14T19:34:41.476Z,8.40
2023-05-14T19:37:48.681Z,11.00
2023-05-14T19:40:57.216Z,11.30
2023-05-14T19:44:04.897Z,10.80
2023-05-14T19:47:11.172Z,8.90
2023-05-14T19:50:17.258Z,8.70
2023-05-14T19:53:24.233Z,9.80
2023-05-14T19:56:30.522Z,9.10
2023-05-14T19:59:38.429Z,9.80
2023-05-14T20:02:44.949Z,8.60
2023-05-14T20:05:51.625Z,8.00
2023-05-14T20:08:57.666Z,9.00
2023-05-14T20:12:04.278Z,8.20
2023-05-14T20:15:11.849Z,7.50
2023-05-14T20:18:18.572Z,8.90
2023-05-14T20:21:24.796Z,8.30
2023-05-14T20:24:31.547Z,9.10
2023-05-14T20:27:37.874Z,6.70
2023-05-14T20:30:44.076Z,8.90
2023-05-14T20:33:50.824Z,7.20
2023-05-14T20:36:57.630Z,6.30
2023-05-14T20:40:06.161Z,7.20
2023-05-14T20:43:13.078Z,6.30
2023-05-14T20:46:19.238Z,5.60
2023-05-14T20:49:25.727Z,6.60
2023-05-14T20:52:31.809Z,6.90
2023-05-14T20:55:38.120Z,7.30
2023-05-14T20:58:44.162Z,7.30
2023-05-14T21:01:50.358Z,7.20
2023-05-14T21:04:56.510Z,6.20
2023-05-14T21:08:02.709Z,6.50
2023-05-14T21:11:08.775Z,7.70
2023-05-14T21:14:14.914Z,6.90
2023-05-14T21:17:21.007Z,6.20
2023-05-14T21:20:27.208Z,7.00
2023-05-14T21:23:33.550Z,7.20
2023-05-14T21:26:41.422Z,7.50
2023-05-14T21:29:47.834Z,8.40
2023-05-14T21:32:54.169Z,8.70
2023-05-14T21:36:00.767Z,9.00
2023-05-14T21:39:07.138Z,10.10
2023-05-14T21:42:16.128Z,10.60
2023-05-14T21:45:23.689Z,8.40
2023-05-14T21:48:31.734Z,10.00
2023-05-14T21:51:38.166Z,9.70
2023-05-14T21:54:44.339Z,10.50
2023-05-14T21:57:51.100Z,12.20
2023-05-14T22:00:57.871Z,10.50
2023-05-14T22:04:05.565Z,9.60
2023-05-14T22:07:12.069Z,9.50
2023-05-14T22:10:18.992Z,10.40
2023-05-14T22:13:25.132Z,11.50
2023-05-14T22:16:31.622Z,11.10
2023-05-14T22:19:38.382Z,11.60
2023-05-14T22:22:44.796Z,10.80
2023-05-14T22:25:51.048Z,11.00
2023-05-14T22:28:58.313Z,10.90
2023-05-14T22:32:07.687Z,12.20
2023-05-14T22:35:14.606Z,10.30
2023-05-14T22:38:21.420Z,11.90
2023-05-14T22:41:27.795Z,12.00
2023-05-14T22:44:34.140Z,10.50
2023-05-14T22:47:40.912Z,14.00
2023-05-14T22:50:47.347Z,13.30
2023-05-14T22:53:53.750Z,12.20
2023-05-14T22:57:00.599Z,9.90
2023-05-14T23:00:08.996Z,11.80
2023-05-14T23:03:15.613Z,11.30
2023-05-14T23:06:22.230Z,12.00
2023-05-14T23:09:28.394Z,11.10
2023-05-14T23:12:34.925Z,11.10
2023-05-14T23:15:41.054Z,11.30
2023-05-14T23:18:47.777Z,11.60
2023-05-14T23:21:53.961Z,11.90
2023-05-14T23:25:01.138Z,11.80
2023-05-14T23:28:07.525Z,10.50
2023-05-14T23:31:13.970Z,10.80
2023-05-14T23:34:21.983Z,11.00
2023-05-14T23:37:28.746Z,10.10
2023-05-14T23:40:35.176Z,10.00
2023-05-14T23:43:41.482Z,10.40
2023-05-14T23:46:47.780Z,10.50
2023-05-14T23:49:54.053Z,10.00
2023-05-14T23:53:00.267Z,9.70
2023-05-14T23:56:06.997Z,9.90
2023-05-14T23:59:13.892Z,9.30
